Time;durP1;ratioP1;P1;durP2;ratioP2;P2;SDS_P1;SDS_P2;PMS_P1;PMS_P2;Temp;Humidity;BMP_temperature;BMP_pressure;BME280_temperature;BME280_humidity;BME280_pressure;Samples;Min_cycle;Max_cycle;Signal;HPM_P1;HPM_P2
2022/08/24 00:01:10;;;;;;;9.70;7.95;;;22.50;85.40;;;;;;5032930;28;20017;-59
2022/08/24 00:03:37;;;;;;;7.75;6.95;;;22.50;85.70;;;;;;5032431;28;20072;-59
2022/08/24 00:06:06;;;;;;;7.63;6.82;;;22.40;86.10;;;;;;5032793;28;20026;-58
2022/08/24 00:08:32;;;;;;;7.47;6.65;;;22.30;86.30;;;;;;5032145;28;20489;-59
2022/08/24 00:10:58;;;;;;;7.78;6.63;;;22.20;86.30;;;;;;5032770;28;20033;-58
2022/08/24 00:13:24;;;;;;;7.15;6.45;;;22.20;86.40;;;;;;5032245;28;20018;-58
2022/08/24 00:15:50;;;;;;;7.82;6.68;;;22.20;86.60;;;;;;5032625;28;20013;-58
2022/08/24 00:18:16;;;;;;;8.13;7.32;;;22.10;86.70;;;;;;5032288;28;20018;-59
2022/08/24 00:20:42;;;;;;;8.43;7.32;;;22.10;87.00;;;;;;5032858;28;20497;-58
2022/08/24 00:23:08;;;;;;;11.25;7.97;;;22.10;87.30;;;;;;5032306;28;20021;-58
2022/08/24 00:25:33;;;;;;;8.55;7.75;;;22.00;87.80;;;;;;5032126;28;20080;-57
2022/08/24 00:28:00;;;;;;;9.52;7.25;;;21.90;88.00;;;;;;5031768;28;20490;-59
2022/08/24 00:30:26;;;;;;;8.75;7.85;;;21.90;88.20;;;;;;5032648;28;20013;-58
2022/08/24 00:32:53;;;;;;;8.65;7.80;;;21.90;88.50;;;;;;5030296;28;20450;-58
2022/08/24 00:35:19;;;;;;;8.43;7.53;;;21.80;88.70;;;;;;5031055;28;20022;-58
2022/08/24 00:37:46;;;;;;;8.52;7.72;;;21.80;88.90;;;;;;5032300;28;20381;-59
2022/08/24 00:40:20;;;;;;;8.90;8.00;;;21.80;89.00;;;;;;5031970;28;20458;-58
2022/08/24 00:42:46;;;;;;;8.18;7.38;;;21.80;89.20;;;;;;5032193;28;20037;-58
2022/08/24 00:45:15;;;;;;;10.27;7.70;;;21.70;89.40;;;;;;5031950;28;20025;-58
2022/08/24 00:47:45;;;;;;;9.43;7.90;;;21.60;89.50;;;;;;5032274;28;20029;-58
2022/08/24 00:50:24;;;;;;;9.20;8.27;;;21.60;89.70;;;;;;5031914;28;20053;-58
2022/08/24 00:52:55;;;;;;;9.35;7.90;;;21.60;89.90;;;;;;5032162;28;20496;-58
2022/08/24 00:55:26;;;;;;;8.73;7.80;;;21.60;90.00;;;;;;5031917;28;20083;-58
2022/08/24 00:57:56;;;;;;;10.52;8.25;;;21.60;90.10;;;;;;5032066;28;20116;-58
2022/08/24 01:00:31;;;;;;;8.93;8.05;;;21.50;90.10;;;;;;5031775;28;20556;-58
2022/08/24 01:03:03;;;;;;;7.38;6.72;;;21.50;90.20;;;;;;5032306;28;20032;-58
2022/08/24 01:05:30;;;;;;;7.35;6.68;;;21.50;90.30;;;;;;5030726;28;20021;-58
2022/08/24 01:07:57;;;;;;;7.68;7.00;;;21.40;90.40;;;;;;5032170;28;20029;-58
2022/08/24 01:10:26;;;;;;;8.63;7.82;;;21.30;90.50;;;;;;5032047;28;20026;-58
2022/08/24 01:12:55;;;;;;;9.40;8.25;;;21.30;90.50;;;;;;5031723;28;20026;-58
2022/08/24 01:15:21;;;;;;;9.90;8.70;;;21.20;90.60;;;;;;5032070;28;20481;-58
2022/08/24 01:20:33;;;;;;;7.28;6.57;;;21.10;90.90;;;;;;5032052;28;20098;-58
2022/08/24 01:23:14;;;;;;;7.60;6.68;;;21.00;91.10;;;;;;5031525;28;20044;-58
2022/08/24 01:25:43;;;;;;;6.70;6.15;;;21.00;91.10;;;;;;5032116;28;20028;-58
2022/08/24 01:28:16;;;;;;;8.53;7.47;;;21.00;91.20;;;;;;5032066;28;20133;-58
2022/08/24 01:30:42;;;;;;;8.85;8.05;;;21.00;91.30;;;;;;5032176;28;20263;-58
2022/08/24 01:33:10;;;;;;;9.27;8.43;;;21.00;91.30;;;;;;5031850;28;20512;-59
2022/08/24 01:35:38;;;;;;;10.18;9.18;;;21.00;91.40;;;;;;5030661;28;20115;-58
2022/08/24 01:38:08;;;;;;;7.00;6.38;;;20.90;91.40;;;;;;5021459;28;20043;-58
2022/08/24 01:40:41;;;;;;;9.25;8.02;;;20.90;91.60;;;;;;5034983;28;20097;-58
2022/08/24 01:43:07;;;;;;;9.57;8.50;;;20.90;91.70;;;;;;5035285;28;20026;-59
2022/08/24 01:45:33;;;;;;;8.77;7.97;;;20.90;91.70;;;;;;5035177;28;20040;-59
2022/08/24 01:47:59;;;;;;;9.43;8.52;;;20.90;91.70;;;;;;5033898;28;20017;-58
2022/08/24 01:50:25;;;;;;;10.18;8.98;;;20.90;91.80;;;;;;5035244;28;20105;-58
2022/08/24 01:52:51;;;;;;;10.73;9.65;;;20.90;91.80;;;;;;5034898;28;20029;-58
2022/08/24 01:55:18;;;;;;;11.10;9.77;;;20.80;91.90;;;;;;5035017;28;20097;-58
2022/08/24 01:57:43;;;;;;;12.30;10.93;;;20.80;91.90;;;;;;5033585;28;20029;-58
2022/08/24 02:00:15;;;;;;;13.20;11.02;;;20.80;92.10;;;;;;5033768;28;20018;-58
2022/08/24 02:02:43;;;;;;;12.43;11.32;;;20.70;92.10;;;;;;5035126;28;20600;-58
2022/08/24 02:05:10;;;;;;;13.02;11.82;;;20.70;92.20;;;;;;5034466;28;20028;-59
2022/08/24 02:07:36;;;;;;;12.90;11.57;;;20.70;92.30;;;;;;5033774;28;20374;-58
2022/08/24 02:10:05;;;;;;;12.93;11.52;;;20.70;92.40;;;;;;5035178;28;20518;-58
2022/08/24 02:12:30;;;;;;;9.77;8.85;;;20.70;92.40;;;;;;5033425;28;20025;-58
2022/08/24 02:14:56;;;;;;;10.27;9.27;;;20.60;92.50;;;;;;5034394;28;20421;-58
2022/08/24 02:17:21;;;;;;;10.88;9.80;;;20.50;92.60;;;;;;5034514;28;20030;-58
2022/08/24 02:19:47;;;;;;;11.82;10.73;;;20.40;92.70;;;;;;5034278;28;20124;-58
2022/08/24 02:22:12;;;;;;;11.10;10.00;;;20.40;92.80;;;;;;5034514;28;20063;-59
2022/08/24 02:24:39;;;;;;;10.55;9.55;;;20.40;92.90;;;;;;5032945;28;20394;-58
2022/08/24 02:27:05;;;;;;;10.30;9.40;;;20.40;93.00;;;;;;5034858;28;20385;-59
2022/08/24 02:29:31;;;;;;;10.73;9.68;;;20.40;93.00;;;;;;5033746;28;20046;-58
2022/08/24 02:31:57;;;;;;;9.80;8.63;;;20.30;93.10;;;;;;5034541;28;20463;-58
2022/08/24 02:34:23;;;;;;;9.23;8.32;;;20.30;93.10;;;;;;5034075;28;20521;-58
2022/08/24 02:36:49;;;;;;;10.60;9.60;;;20.30;93.20;;;;;;5024194;28;20063;-58
2022/08/24 02:39:14;;;;;;;11.75;10.57;;;20.30;93.20;;;;;;5033014;28;20128;-58
2022/08/24 02:41:40;;;;;;;13.50;11.75;;;20.20;93.20;;;;;;5034088;28;20025;-58
2022/08/24 02:44:06;;;;;;;14.07;12.55;;;20.20;93.40;;;;;;5034182;28;20028;-58
2022/08/24 02:46:31;;;;;;;13.98;12.68;;;20.20;93.50;;;;;;5033493;28;20041;-58
2022/08/24 02:48:58;;;;;;;13.10;11.82;;;20.20;93.50;;;;;;5033815;28;20037;-58
2022/08/24 02:51:32;;;;;;;13.18;11.82;;;20.10;93.60;;;;;;5033717;28;20097;-58
2022/08/24 02:54:00;;;;;;;12.55;11.38;;;20.10;93.60;;;;;;5032802;28;20102;-58
2022/08/24 02:56:28;;;;;;;15.65;14.07;;;20.10;93.60;;;;;;5033618;28;20025;-58
2022/08/24 02:58:55;;;;;;;13.00;11.70;;;20.10;93.80;;;;;;5033929;28;20147;-58
2022/08/24 03:01:20;;;;;;;10.45;9.40;;;20.00;94.10;;;;;;5033454;28;20029;-58
2022/08/24 03:03:46;;;;;;;7.80;7.10;;;19.90;94.30;;;;;;5033946;28;20032;-58
2022/08/24 03:06:12;;;;;;;8.95;8.05;;;19.80;94.30;;;;;;5033046;28;20032;-58
2022/08/24 03:09:05;;;;;;;;;;;;;;;;;;;;;
2022/08/24 03:11:31;;;;;;;8.57;7.78;;;19.80;94.40;;;;;;5033444;28;20036;-58
2022/08/24 03:13:57;;;;;;;9.45;8.45;;;19.80;94.30;;;;;;5033221;28;20104;-58
2022/08/24 03:16:24;;;;;;;7.88;7.18;;;19.70;94.30;;;;;;5033300;28;20024;-58
2022/08/24 03:18:49;;;;;;;8.88;7.10;;;19.70;94.40;;;;;;5033509;28;20025;-58
2022/08/24 03:21:15;;;;;;;8.00;7.18;;;19.80;94.80;;;;;;5033084;28;20507;-58
2022/08/24 03:23:40;;;;;;;6.93;6.30;;;19.70;94.50;;;;;;5033246;28;20038;-58
2022/08/24 03:26:06;;;;;;;7.07;6.47;;;19.70;94.50;;;;;;5033155;28;20025;-58
2022/08/24 03:28:32;;;;;;;5.80;5.03;;;19.60;94.60;;;;;;5032745;28;20053;-58
2022/08/24 03:30:57;;;;;;;5.63;5.13;;;19.60;94.70;;;;;;5033088;28;20030;-58
2022/08/24 03:33:23;;;;;;;4.90;4.47;;;19.60;94.80;;;;;;5033039;28;20032;-58
2022/08/24 03:35:48;;;;;;;5.68;5.18;;;19.50;94.90;;;;;;5031502;28;20032;-58
2022/08/24 03:38:14;;;;;;;5.07;4.63;;;19.50;94.90;;;;;;5033323;28;20104;-58
2022/08/24 03:40:40;;;;;;;6.47;5.93;;;19.50;95.00;;;;;;5032952;28;20021;-58
2022/08/24 03:43:07;;;;;;;7.28;6.65;;;19.50;95.00;;;;;;5032953;28;20033;-58
2022/08/24 03:45:32;;;;;;;8.77;7.88;;;19.50;95.00;;;;;;5014592;28;20026;-58
2022/08/24 03:47:58;;;;;;;10.35;9.32;;;19.50;95.00;;;;;;5033138;28;20032;-58
2022/08/24 03:50:24;;;;;;;9.77;8.88;;;19.50;95.00;;;;;;5032761;28;20021;-57
2022/08/24 03:52:50;;;;;;;10.27;9.27;;;19.50;95.00;;;;;;5032773;28;20021;-58
2022/08/24 03:55:16;;;;;;;11.00;10.00;;;19.50;95.10;;;;;;5032369;28;20021;-59
2022/08/24 03:57:42;;;;;;;13.38;12.13;;;19.50;95.10;;;;;;5032780;28;20576;-58
2022/08/24 04:00:11;;;;;;;14.23;12.93;;;19.50;95.40;;;;;;5031861;28;20037;-58
2022/08/24 04:02:36;;;;;;;15.13;13.68;;;19.50;95.20;;;;;;5032828;28;20448;-58
2022/08/24 04:05:04;;;;;;;15.20;13.65;;;19.40;95.20;;;;;;5032279;28;20037;-58
2022/08/24 04:07:30;;;;;;;15.02;13.50;;;19.40;95.20;;;;;;5032491;28;20108;-59
2022/08/24 04:09:55;;;;;;;16.08;14.57;;;19.50;95.20;;;;;;5032501;28;20112;-59
2022/08/24 04:12:22;;;;;;;16.88;15.30;;;19.40;95.30;;;;;;5032303;28;20037;-58
2022/08/24 04:14:51;;;;;;;16.70;15.10;;;19.40;95.40;;;;;;5032413;28;20095;-58
2022/08/24 04:17:17;;;;;;;15.40;13.82;;;19.40;95.50;;;;;;5032154;28;20021;-58
2022/08/24 04:19:56;;;;;;;16.88;15.15;;;19.30;95.50;;;;;;5032508;28;20018;-58
2022/08/24 04:22:23;;;;;;;16.40;14.70;;;19.30;95.60;;;;;;5032435;28;20025;-58
2022/08/24 04:24:49;;;;;;;16.83;15.13;;;19.30;95.70;;;;;;5032738;28;20025;-59
2022/08/24 04:27:15;;;;;;;17.10;14.57;;;19.30;95.70;;;;;;5032490;28;20034;-58
2022/08/24 04:29:40;;;;;;;16.23;14.73;;;19.30;95.90;;;;;;5028794;28;20045;-58
2022/08/24 04:32:06;;;;;;;16.17;14.50;;;19.30;95.80;;;;;;5031499;28;20379;-58
2022/08/24 04:34:32;;;;;;;15.82;14.18;;;19.20;95.80;;;;;;5030512;28;20036;-58
2022/08/24 04:36:57;;;;;;;16.52;14.98;;;19.30;95.80;;;;;;5031175;28;20477;-58
2022/08/24 04:39:23;;;;;;;16.33;14.80;;;19.20;95.80;;;;;;5031567;28;20069;-58
2022/08/24 04:41:49;;;;;;;17.42;15.73;;;19.20;95.90;;;;;;5031575;28;20032;-58
2022/08/24 04:44:14;;;;;;;17.23;15.52;;;19.20;96.00;;;;;;5031436;28;20030;-58
2022/08/24 04:46:40;;;;;;;14.27;12.93;;;19.20;96.10;;;;;;5030986;28;20398;-58
2022/08/24 04:49:05;;;;;;;9.07;8.18;;;19.20;96.10;;;;;;5031312;28;20021;-58
2022/08/24 04:51:31;;;;;;;6.68;6.07;;;19.20;96.10;;;;;;5030720;28;20029;-58
2022/08/24 04:53:56;;;;;;;5.57;5.07;;;19.10;96.20;;;;;;5030606;28;20021;-58
2022/08/24 04:56:23;;;;;;;5.13;4.72;;;19.10;96.20;;;;;;5030606;28;20079;-59
2022/08/24 04:58:50;;;;;;;6.80;6.20;;;19.10;96.20;;;;;;5031082;28;20028;-58
2022/08/24 05:01:19;;;;;;;7.03;6.43;;;19.10;96.30;;;;;;5030533;28;20485;-58
2022/08/24 05:03:47;;;;;;;7.50;6.80;;;19.00;96.30;;;;;;5030709;28;20029;-58
2022/08/24 05:06:15;;;;;;;9.88;8.65;;;19.00;96.40;;;;;;5030591;28;20268;-58
2022/08/24 05:08:40;;;;;;;10.00;9.10;;;19.00;96.40;;;;;;5029455;28;20070;-57
2022/08/24 05:11:07;;;;;;;10.50;9.48;;;19.00;96.40;;;;;;5029263;28;20501;-58
2022/08/24 05:13:36;;;;;;;13.23;11.93;;;19.00;96.50;;;;;;5032194;28;20022;-58
2022/08/24 05:16:05;;;;;;;11.25;10.10;;;19.00;96.50;;;;;;5030351;28;20501;-58
2022/08/24 05:18:32;;;;;;;;;;;19.10;96.60;;;;;;5032118;28;20509;-58
2022/08/24 05:20:58;;;;;;;10.65;9.63;;;19.00;96.50;;;;;;5029833;28;19995;-58
2022/08/24 05:23:23;;;;;;;11.75;10.60;;;19.00;96.70;;;;;;5030500;28;20120;-58
2022/08/24 05:25:49;;;;;;;13.25;12.05;;;19.00;96.60;;;;;;5031586;28;20495;-58
2022/08/24 05:28:15;;;;;;;13.07;11.73;;;19.10;96.70;;;;;;5027707;28;20045;-58
2022/08/24 05:30:40;;;;;;;11.98;10.88;;;19.10;96.70;;;;;;5031715;28;20040;-58
2022/08/24 05:33:06;;;;;;;13.25;11.98;;;19.10;96.80;;;;;;5030138;28;20504;-58
2022/08/24 05:35:39;;;;;;;13.10;11.90;;;19.10;96.80;;;;;;5031142;28;20509;-58
2022/08/24 05:38:05;;;;;;;14.13;12.77;;;19.20;96.90;;;;;;5032060;28;20421;-58
2022/08/24 05:40:30;;;;;;;13.60;12.18;;;19.10;97.00;;;;;;5030007;28;20071;-58
2022/08/24 05:42:56;;;;;;;13.75;12.38;;;19.20;97.10;;;;;;5029824;28;20021;-58
2022/08/24 05:45:21;;;;;;;13.20;12.00;;;19.20;97.10;;;;;;5030959;28;20026;-58
2022/08/24 05:47:47;;;;;;;12.57;11.40;;;19.20;97.10;;;;;;5031294;28;20068;-58
2022/08/24 05:50:13;;;;;;;14.20;12.88;;;19.20;97.20;;;;;;5030539;28;20032;-58
2022/08/24 05:52:38;;;;;;;13.55;12.27;;;19.30;97.20;;;;;;5030807;28;20021;-57
2022/08/24 05:55:04;;;;;;;12.20;11.02;;;19.30;97.30;;;;;;5031233;28;20046;-57
2022/08/24 05:57:32;;;;;;;11.85;10.65;;;19.30;97.30;;;;;;5031487;28;20034;-58
2022/08/24 05:59:57;;;;;;;12.25;11.02;;;19.40;97.30;;;;;;5030878;28;20100;-58
2022/08/24 06:02:23;;;;;;;12.90;11.70;;;19.40;97.30;;;;;;5031211;28;20113;-58
2022/08/24 06:04:48;;;;;;;14.70;13.35;;;19.50;97.30;;;;;;5030460;28;20045;-58
2022/08/24 06:07:15;;;;;;;15.55;13.95;;;19.50;97.40;;;;;;5030862;28;20108;-58
2022/08/24 06:09:41;;;;;;;24.20;21.70;;;19.50;97.50;;;;;;5031179;28;20108;-58
2022/08/24 06:12:07;;;;;;;19.38;17.48;;;19.60;97.90;;;;;;5030961;28;20030;-59
2022/08/24 06:14:34;;;;;;;25.65;23.08;;;19.60;98.10;;;;;;5031035;28;20028;-58
2022/08/24 06:17:03;;;;;;;24.10;21.60;;;19.50;98.60;;;;;;5030416;28;20063;-58
2022/08/24 06:19:28;;;;;;;18.88;17.10;;;19.50;98.90;;;;;;5030531;28;20029;-58
2022/08/24 06:21:54;;;;;;;18.10;16.35;;;19.60;99.00;;;;;;5030415;28;20405;-58
2022/08/24 06:27:20;;;;;;;16.00;14.48;;;19.60;99.00;;;;;;5030424;28;20025;-58
2022/08/24 06:27:20;;;;;;;;;;;19.70;98.90;;;;;;5031132;28;20036;-58
2022/08/24 06:29:46;;;;;;;11.45;10.27;;;19.70;99.00;;;;;;5030538;28;20015;-59
2022/08/24 06:32:11;;;;;;;13.65;12.38;;;19.70;98.80;;;;;;5030100;28;20549;-58
2022/08/24 06:34:38;;;;;;;14.30;12.90;;;19.80;98.70;;;;;;5030926;28;20022;-59
2022/08/24 06:37:04;;;;;;;13.30;12.02;;;19.90;98.60;;;;;;5029143;28;20470;-59
2022/08/24 06:39:30;;;;;;;12.82;11.45;;;20.00;98.50;;;;;;5031489;28;20123;-58
2022/08/24 06:41:55;;;;;;;13.60;12.30;;;20.00;98.30;;;;;;5031372;28;20061;-58
2022/08/24 06:44:21;;;;;;;12.60;11.30;;;20.10;98.30;;;;;;5032281;28;20032;-58
2022/08/24 06:46:46;;;;;;;14.52;13.13;;;20.20;98.20;;;;;;5033795;28;20037;-59
2022/08/24 06:49:12;;;;;;;16.08;14.45;;;20.20;98.50;;;;;;5033861;28;20029;-58
2022/08/24 06:51:45;;;;;;;14.43;13.02;;;20.30;98.40;;;;;;5033924;28;20025;-58
2022/08/24 06:54:10;;;;;;;14.75;13.27;;;20.40;98.50;;;;;;5033470;28;20071;-58
2022/08/24 06:56:37;;;;;;;13.65;12.45;;;20.50;98.50;;;;;;5033777;28;20417;-58
2022/08/24 06:59:03;;;;;;;15.43;13.82;;;20.50;98.40;;;;;;5032717;28;20022;-58
2022/08/24 07:01:29;;;;;;;16.33;14.45;;;20.50;98.50;;;;;;5033613;28;20056;-58
2022/08/24 07:03:55;;;;;;;17.92;16.17;;;20.70;98.70;;;;;;5032411;28;20069;-57
2022/08/24 07:06:22;;;;;;;21.10;18.90;;;20.70;99.00;;;;;;5032784;28;20035;-58
2022/08/24 07:08:48;;;;;;;20.55;17.90;;;20.80;99.10;;;;;;5033315;28;20033;-58
2022/08/24 07:11:16;;;;;;;22.38;20.13;;;20.90;99.00;;;;;;5030965;28;20144;-59
2022/08/24 07:13:46;;;;;;;23.35;20.92;;;21.00;99.10;;;;;;5032171;28;20104;-58
2022/08/24 07:16:12;;;;;;;;;;;21.10;99.10;;;;;;5033213;28;20116;-58
2022/08/24 07:18:37;;;;;;;23.83;20.75;;;21.10;99.00;;;;;;5033573;28;19948;-59
2022/08/24 07:21:03;;;;;;;18.73;16.13;;;21.20;99.00;;;;;;5032132;28;20140;-58
2022/08/24 07:23:29;;;;;;;13.98;12.70;;;21.30;98.60;;;;;;5032284;28;20029;-58
2022/08/24 07:25:55;;;;;;;16.33;12.85;;;21.40;98.30;;;;;;5032440;28;20029;-58
2022/08/24 07:28:21;;;;;;;17.58;14.85;;;21.50;98.30;;;;;;5032547;28;20050;-58
2022/08/24 07:31:13;;;;;;;13.20;11.20;;;21.60;98.10;;;;;;5032389;28;20439;-58
2022/08/24 07:33:38;;;;;;;9.35;8.43;;;21.70;97.50;;;;;;5029155;28;20037;-59
2022/08/24 07:36:04;;;;;;;10.85;8.90;;;21.70;97.30;;;;;;5030920;28;20149;-58
2022/08/24 07:38:39;;;;;;;13.27;11.90;;;21.70;97.10;;;;;;5028606;28;20078;-58
2022/08/24 07:41:04;;;;;;;10.20;8.90;;;21.90;97.00;;;;;;5030384;28;20025;-58
2022/08/24 07:43:30;;;;;;;13.77;8.63;;;21.90;96.70;;;;;;5031546;28;20036;-58
2022/08/24 07:48:57;;;;;;;10.27;7.45;;;22.10;96.20;;;;;;5027831;28;20060;-58
2022/08/24 07:51:23;;;;;;;6.90;6.22;;;22.10;96.00;;;;;;5031608;28;20470;-58
2022/08/24 07:56:37;;;;;;;7.93;6.38;;;22.30;95.40;;;;;;5009862;28;20021;-58
2022/08/24 07:59:02;;;;;;;9.35;6.78;;;22.40;95.30;;;;;;5032480;28;20029;-58
2022/08/24 08:01:28;;;;;;;8.40;6.05;;;22.50;95.20;;;;;;5031631;28;20068;-59
2022/08/24 08:03:54;;;;;;;9.68;6.43;;;22.60;95.00;;;;;;5031564;28;20053;-58
2022/08/24 08:06:19;;;;;;;8.10;5.10;;;22.70;94.90;;;;;;5031362;28;20049;-58
2022/08/24 08:08:45;;;;;;;5.68;4.90;;;22.80;94.60;;;;;;5030391;28;20034;-58
2022/08/24 08:11:36;;;;;;;5.55;4.38;;;22.90;94.30;;;;;;5031495;28;20075;-58
2022/08/24 08:14:01;;;;;;;9.65;6.32;;;23.00;94.00;;;;;;5030666;28;20025;-58
2022/08/24 08:16:27;;;;;;;11.20;7.57;;;23.10;93.70;;;;;;5028537;28;20560;-58
2022/08/24 08:18:52;;;;;;;6.68;5.45;;;23.20;93.20;;;;;;5032204;28;20030;-58
2022/08/24 08:24:14;;;;;;;5.05;3.75;;;23.40;92.70;;;;;;5032726;28;20080;-58
2022/08/24 08:26:41;;;;;;;7.63;4.43;;;23.50;92.50;;;;;;5032313;28;20040;-58
2022/08/24 08:29:09;;;;;;;5.18;3.90;;;23.60;92.30;;;;;;5029900;28;20037;-58
2022/08/24 08:31:36;;;;;;;9.50;6.15;;;23.70;92.10;;;;;;5031915;28;20033;-58
2022/08/24 08:34:02;;;;;;;6.13;4.97;;;23.80;91.80;;;;;;5032025;28;20032;-58
2022/08/24 08:36:28;;;;;;;7.55;4.15;;;23.90;91.60;;;;;;5024673;28;20025;-58
2022/08/24 08:38:54;;;;;;;5.90;3.95;;;24.00;91.40;;;;;;5031847;28;20025;-59
2022/08/24 08:41:42;;;;;;;4.50;3.70;;;24.10;91.20;;;;;;5031768;28;20493;-59
2022/08/24 08:44:36;;;;;;;5.90;3.38;;;24.20;91.00;;;;;;5025907;28;20401;-59
2022/08/24 08:47:15;;;;;;;4.30;3.03;;;24.30;90.50;;;;;;5036298;28;20036;-58
2022/08/24 08:50:07;;;;;;;3.10;2.50;;;24.40;90.30;;;;;;5036550;28;20030;-58
2022/08/24 08:53:01;;;;;;;3.80;2.83;;;24.60;89.90;;;;;;5035622;28;20017;-59
2022/08/24 08:55:32;;;;;;;5.38;2.35;;;24.70;88.20;;;;;;5032835;28;20466;-60
2022/08/24 08:58:19;;;;;;;3.42;1.90;;;24.80;87.00;;;;;;5034679;28;20036;-58
2022/08/24 09:00:45;;;;;;;2.58;1.75;;;24.90;86.60;;;;;;5032371;28;20048;-58
2022/08/24 09:03:41;;;;;;;3.58;2.38;;;25.00;86.60;;;;;;5034841;28;20018;-58
2022/08/24 09:06:48;;;;;;;3.95;2.53;;;25.10;86.20;;;;;;5032986;28;20039;-58
2022/08/24 09:09:38;;;;;;;3.97;2.20;;;25.20;85.80;;;;;;5018162;28;20033;-58
2022/08/24 09:12:34;;;;;;;5.97;2.20;;;25.30;85.50;;;;;;5029995;28;20097;-59
2022/08/24 09:15:22;;;;;;;2.10;1.85;;;25.40;85.10;;;;;;5032415;28;20009;-58
2022/08/24 09:18:10;;;;;;;2.80;2.38;;;25.40;85.00;;;;;;5032708;28;20044;-59
2022/08/24 09:21:21;;;;;;;3.03;1.87;;;25.60;84.10;;;;;;5034013;28;20037;-58
2022/08/24 09:24:13;;;;;;;3.20;2.03;;;25.70;83.60;;;;;;5034415;28;20021;-59
2022/08/24 09:26:54;;;;;;;4.85;2.50;;;25.80;83.50;;;;;;5034749;28;20528;-58
2022/08/24 09:29:44;;;;;;;4.28;1.88;;;25.90;83.30;;;;;;5035259;28;20150;-58
2022/08/24 09:32:29;;;;;;;2.15;1.50;;;26.10;83.20;;;;;;5024127;28;20385;-58
2022/08/24 09:35:05;;;;;;;2.63;1.75;;;26.10;83.00;;;;;;5033802;28;20025;-58
2022/08/24 09:37:50;;;;;;;3.88;1.83;;;26.20;82.30;;;;;;5029548;28;20025;-58
2022/08/24 09:40:36;;;;;;;2.67;1.60;;;26.30;81.90;;;;;;5024011;28;20029;-58
2022/08/24 09:43:07;;;;;;;4.05;1.75;;;26.50;81.50;;;;;;5034993;28;20056;-58
2022/08/24 09:46:18;;;;;;;4.63;1.75;;;26.60;80.70;;;;;;5035281;28;20030;-58
2022/08/24 09:49:21;;;;;;;2.80;1.65;;;26.70;80.00;;;;;;5039378;28;20516;-59
2022/08/24 09:52:28;;;;;;;1.98;1.27;;;26.80;79.70;;;;;;5025739;28;20547;-58
2022/08/24 09:55:22;;;;;;;2.08;1.30;;;27.00;76.40;;;;;;5017803;28;20048;-58
2022/08/24 09:57:51;;;;;;;3.10;1.23;;;27.00;75.00;;;;;;5032626;28;20026;-59
2022/08/24 10:00:29;;;;;;;;;;;27.10;73.60;;;;;;5034030;28;20018;-58
2022/08/24 10:03:21;;;;;;;2.40;1.52;;;27.10;73.20;;;;;;5034883;28;19912;-58
2022/08/24 10:06:06;;;;;;;2.28;1.45;;;27.20;72.70;;;;;;5033559;28;20060;-58
2022/08/24 10:08:44;;;;;;;1.02;0.90;;;27.40;72.10;;;;;;5034685;28;20068;-58
2022/08/24 10:11:17;;;;;;;2.05;1.08;;;27.60;71.90;;;;;;5034535;28;20017;-59
2022/08/24 10:14:05;;;;;;;2.42;0.70;;;27.70;70.90;;;;;;5033228;28;20083;-58
2022/08/24 10:16:51;;;;;;;1.00;0.80;;;27.90;71.00;;;;;;5021739;28;20523;-59
2022/08/24 10:19:57;;;;;;;2.92;1.20;;;28.00;69.30;;;;;;5036433;28;20140;-58
2022/08/24 10:22:49;;;;;;;1.88;1.10;;;28.20;66.90;;;;;;5034487;28;20565;-59
2022/08/24 10:25:18;;;;;;;3.40;0.85;;;28.30;66.50;;;;;;5034072;28;20025;-58
2022/08/24 10:28:41;;;;;;;2.72;1.05;;;28.40;66.80;;;;;;5033753;28;20022;-59
2022/08/24 10:31:18;;;;;;;1.23;0.60;;;28.60;67.00;;;;;;5033814;28;20029;-58
2022/08/24 10:34:06;;;;;;;0.93;0.70;;;28.70;66.40;;;;;;5033832;28;20068;-58
2022/08/24 10:36:41;;;;;;;1.30;0.70;;;28.90;64.50;;;;;;5027088;28;20045;-59
2022/08/24 10:39:45;;;;;;;1.67;0.60;;;28.90;63.70;;;;;;5032328;28;20120;-58
2022/08/24 10:45:48;;;;;;;1.50;0.40;;;29.30;61.40;;;;;;5034240;28;20033;-59
2022/08/24 10:48:19;;;;;;;0.60;0.35;;;29.40;62.00;;;;;;5030831;28;20539;-59
2022/08/24 10:50:45;;;;;;;0.70;0.30;;;29.60;62.40;;;;;;5031653;28;20485;-59
2022/08/24 10:53:22;;;;;;;0.90;0.55;;;29.90;62.70;;;;;;5033029;28;20052;-59
2022/08/24 10:56:06;;;;;;;1.65;0.68;;;30.10;61.70;;;;;;5033857;28;20473;-59
2022/08/24 10:58:50;;;;;;;2.08;0.70;;;30.20;58.60;;;;;;5033605;28;20021;-59
2022/08/24 11:01:33;;;;;;;1.15;0.70;;;30.40;59.10;;;;;;5034097;28;20351;-59
2022/08/24 11:04:10;;;;;;;3.15;1.02;;;30.40;57.60;;;;;;5033650;28;20030;-59
2022/08/24 11:06:42;;;;;;;1.75;0.80;;;30.50;57.00;;;;;;5033095;28;20366;-59
2022/08/24 11:09:11;;;;;;;1.63;0.90;;;31.00;57.20;;;;;;5030857;28;20541;-59
2022/08/24 11:11:46;;;;;;;1.40;0.77;;;32.50;55.30;;;;;;5030391;28;20021;-59
2022/08/24 11:14:14;;;;;;;1.55;0.75;;;33.70;54.00;;;;;;5026791;28;20111;-59
2022/08/24 11:16:43;;;;;;;1.45;0.68;;;34.80;52.50;;;;;;5019155;28;20075;-59
2022/08/24 11:19:32;;;;;;;1.58;0.80;;;35.90;51.30;;;;;;5031760;28;20025;-59
2022/08/24 11:22:04;;;;;;;3.08;0.70;;;37.20;49.90;;;;;;5032165;28;20033;-59
2022/08/24 11:24:38;;;;;;;1.25;0.80;;;38.50;48.50;;;;;;5032749;28;20033;-59
2022/08/24 11:27:07;;;;;;;1.77;0.60;;;39.20;46.50;;;;;;5030861;28;20021;-59
2022/08/24 11:29:51;;;;;;;;;;;38.90;45.80;;;;;;5030865;28;20045;-59
2022/08/24 11:32:25;;;;;;;1.25;0.60;;;38.30;46.70;;;;;;5031796;28;19909;-59
2022/08/24 11:34:50;;;;;;;0.93;0.60;;;37.90;47.00;;;;;;5032382;28;20028;-59
2022/08/24 11:37:22;;;;;;;0.70;0.60;;;37.90;47.40;;;;;;5031668;28;20037;-59
2022/08/24 11:39:48;;;;;;;2.28;0.70;;;38.00;47.40;;;;;;5030693;28;20029;-59
2022/08/24 11:42:46;;;;;;;1.63;0.90;;;37.70;46.50;;;;;;5031741;28;20107;-59
2022/08/24 11:45:39;;;;;;;1.10;0.70;;;37.60;47.00;;;;;;5029849;28;20036;-60
2022/08/24 11:48:39;;;;;;;0.88;0.70;;;37.00;43.90;;;;;;5027993;28;20033;-59
2022/08/24 11:51:28;;;;;;;1.55;0.98;;;36.30;45.10;;;;;;5029519;28;20049;-59
2022/08/24 11:54:23;;;;;;;2.28;0.60;;;36.10;46.30;;;;;;5028773;28;20024;-59
2022/08/24 11:57:09;;;;;;;1.35;0.68;;;36.30;46.70;;;;;;5027779;28;20021;-59
2022/08/24 12:00:00;;;;;;;1.27;0.60;;;36.50;46.70;;;;;;5028819;28;20029;-59
2022/08/24 12:02:26;;;;;;;1.05;0.70;;;36.60;46.50;;;;;;5031019;28;20481;-59
2022/08/24 12:05:02;;;;;;;0.55;0.50;;;36.50;46.40;;;;;;5031040;28;20052;-59
2022/08/24 12:07:34;;;;;;;1.05;0.60;;;36.40;46.60;;;;;;5029358;28;20034;-59
2022/08/24 12:10:25;;;;;;;2.72;1.02;;;36.30;46.40;;;;;;5031242;28;20040;-59
2022/08/24 12:12:55;;;;;;;2.47;0.77;;;35.70;45.20;;;;;;5031033;28;20033;-59
2022/08/24 12:15:47;;;;;;;3.88;0.80;;;35.40;46.30;;;;;;5031383;28;20096;-59
2022/08/24 12:18:46;;;;;;;0.80;0.68;;;35.50;46.20;;;;;;5031050;28;20021;-59
2022/08/24 12:21:16;;;;;;;3.05;0.70;;;35.20;46.50;;;;;;5030646;28;20014;-59
2022/08/24 12:23:46;;;;;;;0.63;0.60;;;35.30;47.50;;;;;;5030975;28;20009;-59
2022/08/24 12:26:27;;;;;;;1.20;0.80;;;35.60;47.60;;;;;;5031177;28;20057;-59
2022/08/24 12:29:00;;;;;;;1.30;0.82;;;35.70;45.80;;;;;;5032072;28;20390;-59
2022/08/24 12:31:35;;;;;;;1.05;0.70;;;35.40;46.20;;;;;;5032427;28;20046;-59
2022/08/24 12:34:07;;;;;;;2.30;0.93;;;35.40;46.40;;;;;;5032232;28;20481;-59
2022/08/24 12:36:46;;;;;;;1.23;0.70;;;35.30;46.10;;;;;;5032293;28;20179;-59
2022/08/24 12:39:17;;;;;;;1.75;0.90;;;35.80;46.50;;;;;;5030876;28;20366;-59
2022/08/24 12:42:10;;;;;;;1.23;0.70;;;36.30;46.00;;;;;;5031886;28;20515;-60
2022/08/24 12:44:57;;;;;;;1.63;0.70;;;36.30;45.10;;;;;;5023350;28;20478;-59
2022/08/24 12:47:56;;;;;;;1.48;1.00;;;36.60;45.20;;;;;;5019591;28;20061;-59
2022/08/24 12:50:45;;;;;;;1.13;0.80;;;36.60;44.00;;;;;;5031906;28;20381;-60
2022/08/24 12:53:32;;;;;;;2.33;0.60;;;36.00;44.50;;;;;;5031971;28;20022;-59
2022/08/24 12:56:22;;;;;;;0.95;0.70;;;36.30;45.10;;;;;;5032265;28;20457;-60
2022/08/24 12:58:57;;;;;;;1.27;0.60;;;36.70;44.90;;;;;;5032000;28;20089;-60
2022/08/24 13:01:26;;;;;;;1.13;0.80;;;37.20;44.70;;;;;;5031829;28;20033;-59
2022/08/24 13:04:12;;;;;;;0.80;0.60;;;37.40;44.00;;;;;;5031808;28;20021;-60
2022/08/24 13:07:30;;;;;;;2.40;0.70;;;37.40;44.00;;;;;;5032200;28;20068;-59
2022/08/24 13:09:58;;;;;;;2.33;1.10;;;37.60;44.30;;;;;;5025826;28;20045;-59
2022/08/24 13:12:45;;;;;;;2.20;0.70;;;37.50;42.40;;;;;;5028052;28;20025;-59
2022/08/24 13:15:26;;;;;;;1.25;0.60;;;37.40;43.10;;;;;;5031083;28;20030;-60
2022/08/24 13:17:58;;;;;;;2.15;0.70;;;37.50;43.40;;;;;;5031527;28;20037;-59
2022/08/24 13:20:49;;;;;;;1.67;0.60;;;37.40;42.30;;;;;;5030700;28;20071;-60
2022/08/24 13:23:20;;;;;;;1.50;0.70;;;36.80;42.90;;;;;;5021642;28;20021;-60
2022/08/24 13:25:46;;;;;;;1.33;0.60;;;37.00;43.70;;;;;;5031846;28;20025;-60